createdAt,value
2022-12-11T00:00:04.346Z,150.000000
2022-12-11T00:01:00.723Z,150.000000
2022-12-11T00:02:00.814Z,125.000000
2022-12-11T00:03:00.778Z,125.000000
2022-12-11T00:04:00.792Z,125.000000
2022-12-11T00:05:04.296Z,127.500000
2022-12-11T00:06:00.856Z,127.500000
2022-12-11T00:07:00.768Z,127.500000
2022-12-11T00:08:00.905Z,127.500000
2022-12-11T00:09:00.776Z,140.000000
2022-12-11T00:10:04.480Z,140.000000
2022-12-11T00:11:00.833Z,140.000000
2022-12-11T00:12:00.912Z,175.000000
2022-12-11T00:13:00.808Z,175.000000
2022-12-11T00:14:00.860Z,175.000000
2022-12-11T00:15:04.102Z,190.000000
2022-12-11T00:16:00.913Z,190.000000
2022-12-11T00:17:00.889Z,190.000000
2022-12-11T00:18:00.957Z,190.000000
2022-12-11T00:19:00.834Z,190.000000
2022-12-11T00:20:04.862Z,162.500000
2022-12-11T00:21:00.866Z,162.500000
2022-12-11T00:22:00.923Z,162.500000
2022-12-11T00:23:00.863Z,177.500000
2022-12-11T00:24:00.979Z,177.500000
2022-12-11T00:25:04.134Z,177.500000
2022-12-11T00:26:00.956Z,177.500000
2022-12-11T00:27:00.948Z,177.500000
2022-12-11T00:28:00.978Z,177.500000
2022-12-11T00:29:00.886Z,177.500000
2022-12-11T00:30:05.064Z,177.500000
2022-12-11T00:31:00.914Z,177.500000
2022-12-11T00:32:01.006Z,177.500000
2022-12-11T00:33:00.943Z,177.500000
2022-12-11T00:34:00.980Z,177.500000
2022-12-11T00:35:04.198Z,177.500000
2022-12-11T00:36:01.057Z,177.500000
2022-12-11T00:37:01.018Z,177.500000
2022-12-11T00:38:01.031Z,177.500000
2022-12-11T00:39:00.973Z,177.500000
2022-12-11T00:40:04.758Z,177.500000
2022-12-11T00:41:00.978Z,177.500000
2022-12-11T00:42:01.077Z,177.500000
2022-12-11T00:43:01.004Z,177.500000
2022-12-11T00:44:01.061Z,177.500000
2022-12-11T00:45:04.398Z,155.000000
2022-12-11T00:46:01.178Z,155.000000
2022-12-11T00:47:01.025Z,155.000000
2022-12-11T00:48:01.125Z,155.000000
2022-12-11T00:49:01.010Z,155.000000
2022-12-11T00:50:06.173Z,155.000000
2022-12-11T00:51:01.051Z,155.000000
2022-12-11T00:52:01.148Z,155.000000
2022-12-11T00:53:01.074Z,132.500000
2022-12-11T00:54:01.175Z,132.500000
2022-12-11T00:55:04.324Z,120.000000
2022-12-11T00:56:01.149Z,120.000000
2022-12-11T00:57:01.079Z,120.000000
2022-12-11T00:58:01.205Z,157.500000
2022-12-11T00:59:01.098Z,157.500000
2022-12-11T01:00:05.139Z,145.000000
2022-12-11T01:01:01.169Z,145.000000
2022-12-11T01:02:01.182Z,145.000000
2022-12-11T01:03:01.217Z,120.000000
2022-12-11T01:04:01.194Z,120.000000
2022-12-11T01:05:04.433Z,157.500000
2022-12-11T01:06:01.252Z,157.500000
2022-12-11T01:07:01.135Z,157.500000
2022-12-11T01:08:01.239Z,172.500000
2022-12-11T01:09:01.187Z,172.500000
2022-12-11T01:10:04.964Z,172.500000
2022-12-11T01:11:01.186Z,220.000000
2022-12-11T01:12:01.305Z,220.000000
2022-12-11T01:13:00.173Z,220.000000
2022-12-11T01:14:00.297Z,220.000000
2022-12-11T01:15:03.924Z,220.000000
2022-12-11T01:16:00.281Z,220.000000
2022-12-11T01:17:00.296Z,222.500000
2022-12-11T01:18:00.321Z,222.500000
2022-12-11T01:19:00.232Z,222.500000
2022-12-11T01:20:04.088Z,242.500000
2022-12-11T01:21:00.239Z,242.500000
2022-12-11T01:22:00.332Z,242.500000
2022-12-11T01:23:00.239Z,245.000000
2022-12-11T01:24:00.375Z,245.000000
2022-12-11T01:25:03.822Z,212.500000
2022-12-11T01:26:00.336Z,212.500000
2022-12-11T01:27:00.294Z,185.000000
2022-12-11T01:28:00.335Z,185.000000
2022-12-11T01:29:00.291Z,185.000000
2022-12-11T01:30:04.338Z,200.000000
2022-12-11T01:31:00.395Z,200.000000
2022-12-11T01:32:00.374Z,200.000000
2022-12-11T01:33:00.320Z,195.000000
2022-12-11T01:34:00.404Z,195.000000
2022-12-11T01:35:05.890Z,192.500000
2022-12-11T01:36:00.412Z,192.500000
2022-12-11T01:37:00.344Z,192.500000
2022-12-11T01:38:00.419Z,192.500000
2022-12-11T01:39:00.360Z,192.500000
2022-12-11T01:40:04.969Z,192.500000
2022-12-11T01:41:00.389Z,187.500000
2022-12-11T01:42:00.477Z,187.500000
2022-12-11T01:43:00.378Z,185.000000
2022-12-11T01:44:00.445Z,185.000000
2022-12-11T01:45:05.367Z,185.000000
2022-12-11T01:46:00.513Z,200.000000
2022-12-11T01:47:00.457Z,200.000000
2022-12-11T01:48:00.488Z,252.500000
2022-12-11T01:49:00.425Z,252.500000
2022-12-11T01:50:03.940Z,320.000000
2022-12-11T01:51:00.447Z,320.000000
2022-12-11T01:52:00.532Z,320.000000
2022-12-11T01:53:00.474Z,162.500000
2022-12-11T01:54:00.560Z,162.500000
2022-12-11T01:55:03.920Z,162.500000
2022-12-11T01:56:00.557Z,160.000000
2022-12-11T01:57:00.505Z,160.000000
2022-12-11T01:58:00.564Z,160.000000
2022-12-11T01:59:00.538Z,160.000000
2022-12-11T02:00:04.096Z,160.000000
2022-12-11T02:01:00.573Z,160.000000
2022-12-11T02:02:00.607Z,160.000000
2022-12-11T02:03:00.547Z,160.000000
2022-12-11T02:04:00.593Z,160.000000
2022-12-11T02:05:03.722Z,160.000000
2022-12-11T02:06:00.625Z,205.000000
2022-12-11T02:07:00.558Z,205.000000
2022-12-11T02:08:00.698Z,205.000000
2022-12-11T02:09:00.569Z,240.000000
2022-12-11T02:10:04.440Z,240.000000
2022-12-11T02:11:00.583Z,237.500000
2022-12-11T02:12:00.683Z,237.500000
2022-12-11T02:13:00.596Z,230.000000
2022-12-11T02:14:00.662Z,230.000000
2022-12-11T02:15:03.805Z,230.000000
2022-12-11T02:16:00.739Z,160.000000
2022-12-11T02:17:00.630Z,160.000000
2022-12-11T02:18:00.715Z,160.000000
2022-12-11T02:19:00.617Z,157.500000
2022-12-11T02:20:04.249Z,157.500000
2022-12-11T02:21:00.665Z,157.500000
2022-12-11T02:22:00.770Z,157.500000
2022-12-11T02:23:00.662Z,165.000000
2022-12-11T02:24:00.742Z,165.000000
2022-12-11T02:25:03.897Z,165.000000
2022-12-11T02:26:00.755Z,220.000000
2022-12-11T02:27:00.686Z,220.000000
2022-12-11T02:28:00.798Z,220.000000
2022-12-11T02:29:00.690Z,220.000000
2022-12-11T02:30:04.400Z,220.000000
2022-12-11T02:31:00.750Z,220.000000
2022-12-11T02:32:00.780Z,220.000000
2022-12-11T02:33:00.775Z,220.000000
2022-12-11T02:34:00.853Z,220.000000
2022-12-11T02:35:04.035Z,220.000000
2022-12-11T02:36:00.855Z,220.000000
2022-12-11T02:37:00.759Z,220.000000
2022-12-11T02:38:00.833Z,220.000000
2022-12-11T02:39:00.775Z,220.000000
2022-12-11T02:40:06.053Z,220.000000
2022-12-11T02:41:00.787Z,220.000000
2022-12-11T02:42:00.862Z,220.000000
2022-12-11T02:43:00.805Z,220.000000
2022-12-11T02:44:00.864Z,195.000000
2022-12-11T02:45:04.298Z,195.000000
2022-12-11T02:46:01.048Z,110.000000
2022-12-11T02:47:00.893Z,110.000000
2022-12-11T02:48:00.915Z,110.000000
2022-12-11T02:49:00.858Z,100.000000
2022-12-11T02:50:05.745Z,100.000000
2022-12-11T02:51:00.853Z,122.500000
2022-12-11T02:52:00.994Z,122.500000
2022-12-11T02:53:00.847Z,122.500000
2022-12-11T02:54:01.026Z,125.000000
2022-12-11T02:55:04.291Z,125.000000
2022-12-11T02:56:00.943Z,125.000000
2022-12-11T02:57:00.895Z,125.000000
2022-12-11T02:58:00.986Z,125.000000
2022-12-11T02:59:00.917Z,125.000000
2022-12-11T03:00:04.648Z,125.000000
2022-12-11T03:01:01.007Z,125.000000
2022-12-11T03:02:01.128Z,192.500000
2022-12-11T03:03:00.950Z,192.500000
2022-12-11T03:04:01.057Z,192.500000
2022-12-11T03:05:04.431Z,162.500000
2022-12-11T03:06:01.044Z,162.500000
2022-12-11T03:07:00.980Z,170.000000
2022-12-11T03:08:01.093Z,170.000000
2022-12-11T03:09:00.993Z,170.000000
2022-12-11T03:10:04.837Z,170.000000
2022-12-11T03:11:01.004Z,170.000000
2022-12-11T03:12:01.081Z,177.500000
2022-12-11T03:13:00.995Z,177.500000
2022-12-11T03:14:01.085Z,177.500000
2022-12-11T03:15:04.366Z,177.500000
2022-12-11T03:16:01.201Z,177.500000
2022-12-11T03:17:01.036Z,152.500000
2022-12-11T03:18:01.120Z,152.500000
2022-12-11T03:19:01.026Z,142.500000
2022-12-11T03:20:04.781Z,142.500000
2022-12-11T03:21:01.099Z,142.500000
2022-12-11T03:22:01.189Z,140.000000
2022-12-11T03:23:01.073Z,140.000000
2022-12-11T03:24:01.167Z,140.000000
2022-12-11T03:25:04.300Z,155.000000
2022-12-11T03:26:01.143Z,155.000000
2022-12-11T03:27:01.390Z,155.000000
2022-12-11T03:28:01.210Z,165.000000
2022-12-11T03:29:01.099Z,165.000000
2022-12-11T03:30:37.290Z,157.500000
2022-12-11T03:31:01.160Z,157.500000
2022-12-11T03:32:01.220Z,147.500000
2022-12-11T03:33:01.168Z,147.500000
2022-12-11T03:34:01.266Z,147.500000
2022-12-11T03:35:06.173Z,147.500000
2022-12-11T03:36:01.258Z,147.500000
2022-12-11T03:37:01.157Z,145.000000
2022-12-11T03:38:01.248Z,145.000000
2022-12-11T03:39:00.179Z,145.000000
2022-12-11T03:40:05.281Z,150.000000
2022-12-11T03:41:00.203Z,150.000000
2022-12-11T03:42:00.282Z,170.000000
2022-12-11T03:43:00.190Z,170.000000
2022-12-11T03:44:00.265Z,170.000000
2022-12-11T03:45:03.817Z,180.000000
2022-12-11T03:46:00.343Z,180.000000
2022-12-11T03:47:00.222Z,180.000000
2022-12-11T03:48:00.330Z,162.500000
2022-12-11T03:49:00.237Z,162.500000
2022-12-11T03:50:03.848Z,155.000000
2022-12-11T03:51:00.278Z,155.000000
2022-12-11T03:52:00.958Z,155.000000
2022-12-11T03:53:00.286Z,152.500000
2022-12-11T03:54:00.347Z,152.500000
2022-12-11T03:55:03.704Z,177.500000
2022-12-11T03:56:00.857Z,177.500000
2022-12-11T03:57:00.321Z,177.500000
2022-12-11T03:58:00.418Z,177.500000
2022-12-11T03:59:00.320Z,177.500000
2022-12-11T04:00:04.047Z,180.000000
2022-12-11T04:01:00.360Z,180.000000
2022-12-11T04:02:00.490Z,180.000000
2022-12-11T04:03:00.382Z,180.000000
2022-12-11T04:04:00.556Z,180.000000
2022-12-11T04:05:03.793Z,187.500000
2022-12-11T04:06:00.476Z,187.500000
2022-12-11T04:07:00.389Z,187.500000
2022-12-11T04:08:00.567Z,170.000000
2022-12-11T04:09:00.410Z,170.000000
2022-12-11T04:10:05.324Z,155.000000
2022-12-11T04:11:00.415Z,155.000000
2022-12-11T04:12:00.516Z,155.000000
2022-12-11T04:13:00.459Z,155.000000
2022-12-11T04:14:00.486Z,155.000000
2022-12-11T04:15:03.760Z,145.000000
2022-12-11T04:16:00.602Z,145.000000
2022-12-11T04:17:00.457Z,162.500000
2022-12-11T04:18:00.577Z,162.500000
2022-12-11T04:19:00.485Z,162.500000
2022-12-11T04:20:04.239Z,180.000000
2022-12-11T04:21:00.499Z,180.000000
2022-12-11T04:22:00.583Z,165.000000
2022-12-11T04:23:00.493Z,165.000000
2022-12-11T04:24:00.936Z,165.000000
2022-12-11T04:25:03.681Z,130.000000
2022-12-11T04:26:00.587Z,130.000000
2022-12-11T04:27:00.543Z,142.500000
2022-12-11T04:28:00.622Z,142.500000
2022-12-11T04:29:00.534Z,142.500000
2022-12-11T04:30:05.919Z,140.000000
2022-12-11T04:31:00.605Z,140.000000
2022-12-11T04:32:00.628Z,140.000000
2022-12-11T04:33:00.583Z,175.000000
2022-12-11T04:34:00.666Z,175.000000
2022-12-11T04:35:03.843Z,135.000000
2022-12-11T04:36:00.696Z,135.000000
2022-12-11T04:37:00.598Z,140.000000
2022-12-11T04:38:00.873Z,140.000000
2022-12-11T04:39:00.616Z,140.000000
2022-12-11T04:40:04.688Z,175.000000
2022-12-11T04:41:00.636Z,175.000000
2022-12-11T04:42:00.731Z,175.000000
2022-12-11T04:43:00.629Z,155.000000
2022-12-11T04:44:00.710Z,155.000000
2022-12-11T04:45:04.113Z,155.000000
2022-12-11T04:46:00.842Z,137.500000
2022-12-11T04:47:00.655Z,137.500000
2022-12-11T04:48:00.752Z,135.000000
2022-12-11T04:49:00.680Z,135.000000
2022-12-11T04:50:04.607Z,150.000000
2022-12-11T04:51:00.716Z,150.000000
2022-12-11T04:52:00.930Z,150.000000
2022-12-11T04:53:00.726Z,145.000000
2022-12-11T04:54:00.787Z,145.000000
2022-12-11T04:55:04.076Z,145.000000
2022-12-11T04:56:00.836Z,140.000000
2022-12-11T04:57:00.727Z,140.000000
2022-12-11T04:58:00.813Z,130.000000
2022-12-11T04:59:00.727Z,130.000000
2022-12-11T05:00:06.456Z,137.500000
2022-12-11T05:01:00.755Z,137.500000
2022-12-11T05:02:00.870Z,137.500000
2022-12-11T05:03:00.839Z,140.000000
2022-12-11T05:04:00.853Z,140.000000
2022-12-11T05:05:04.045Z,140.000000
2022-12-11T05:06:00.917Z,132.500000
2022-12-11T05:07:00.792Z,132.500000
2022-12-11T05:08:00.962Z,132.500000
2022-12-11T05:09:00.805Z,170.000000
2022-12-11T05:10:05.920Z,170.000000
2022-12-11T05:11:00.810Z,177.500000
2022-12-11T05:12:00.906Z,177.500000
2022-12-11T05:13:00.823Z,167.500000
2022-12-11T05:14:00.886Z,167.500000
2022-12-11T05:15:04.096Z,167.500000
2022-12-11T05:16:00.965Z,165.000000
2022-12-11T05:17:00.864Z,165.000000
2022-12-11T05:18:00.937Z,157.500000
2022-12-11T05:19:00.847Z,157.500000
2022-12-11T05:20:04.605Z,157.500000
2022-12-11T05:21:00.887Z,145.000000
2022-12-11T05:22:00.990Z,145.000000
2022-12-11T05:23:00.877Z,170.000000
2022-12-11T05:24:00.969Z,170.000000
2022-12-11T05:25:05.950Z,170.000000
2022-12-11T05:26:00.999Z,137.500000
2022-12-11T05:27:00.922Z,137.500000
2022-12-11T05:28:01.045Z,137.500000
2022-12-11T05:29:00.941Z,145.000000
2022-12-11T05:30:05.025Z,145.000000
2022-12-11T05:31:01.001Z,150.000000
2022-12-11T05:32:01.013Z,150.000000
2022-12-11T05:33:00.970Z,140.000000
2022-12-11T05:34:01.067Z,140.000000
2022-12-11T05:35:04.521Z,130.000000
2022-12-11T05:36:01.057Z,130.000000
2022-12-11T05:37:00.971Z,130.000000
2022-12-11T05:38:01.050Z,140.000000
2022-12-11T05:39:01.014Z,140.000000
2022-12-11T05:40:04.892Z,140.000000
2022-12-11T05:41:01.023Z,165.000000
2022-12-11T05:42:01.101Z,165.000000
2022-12-11T05:43:01.016Z,132.500000
2022-12-11T05:44:01.433Z,132.500000
2022-12-11T05:45:04.610Z,135.000000
2022-12-11T05:46:01.140Z,135.000000
2022-12-11T05:47:01.095Z,135.000000
2022-12-11T05:48:01.148Z,125.000000
2022-12-11T05:49:01.055Z,125.000000
2022-12-11T05:50:05.041Z,125.000000
2022-12-11T05:51:01.077Z,127.500000
2022-12-11T05:52:01.176Z,127.500000
2022-12-11T05:53:01.078Z,150.000000
2022-12-11T05:54:01.185Z,150.000000
2022-12-11T05:55:04.612Z,150.000000
2022-12-11T05:56:01.170Z,165.000000
2022-12-11T05:57:01.133Z,165.000000
2022-12-11T05:58:01.224Z,165.000000
2022-12-11T05:59:01.121Z,155.000000
2022-12-11T06:00:06.233Z,155.000000
2022-12-11T06:01:01.164Z,155.000000
2022-12-11T06:02:00.326Z,170.000000
2022-12-11T06:03:00.357Z,170.000000
2022-12-11T06:04:00.313Z,170.000000
2022-12-11T06:05:03.797Z,170.000000
2022-12-11T06:06:00.883Z,155.000000
2022-12-11T06:07:00.221Z,155.000000
2022-12-11T06:08:00.377Z,155.000000
2022-12-11T06:09:00.237Z,172.500000
2022-12-11T06:10:04.110Z,172.500000
2022-12-11T06:11:00.275Z,172.500000
2022-12-11T06:12:00.334Z,150.000000
2022-12-11T06:13:00.260Z,150.000000
2022-12-11T06:14:00.315Z,150.000000
2022-12-11T06:15:03.801Z,150.000000
2022-12-11T06:16:00.482Z,150.000000
2022-12-11T06:17:00.289Z,155.000000
2022-12-11T06:18:00.383Z,155.000000
2022-12-11T06:19:00.296Z,167.500000
2022-12-11T06:20:05.642Z,167.500000
2022-12-11T06:21:00.325Z,167.500000
2022-12-11T06:22:00.402Z,167.500000
2022-12-11T06:23:00.315Z,167.500000
2022-12-11T06:24:00.416Z,167.500000
2022-12-11T06:25:03.832Z,197.500000
2022-12-11T06:26:00.387Z,197.500000
2022-12-11T06:27:00.359Z,190.000000
2022-12-11T06:28:00.504Z,190.000000
2022-12-11T06:29:00.367Z,177.500000
2022-12-11T06:30:38.758Z,177.500000
2022-12-11T06:31:00.359Z,177.500000
2022-12-11T06:32:00.492Z,157.500000
2022-12-11T06:33:00.383Z,157.500000
2022-12-11T06:34:00.853Z,175.000000
2022-12-11T06:35:03.864Z,175.000000
2022-12-11T06:36:00.478Z,175.000000
2022-12-11T06:37:00.388Z,157.500000
2022-12-11T06:38:00.472Z,157.500000
2022-12-11T06:39:00.419Z,167.500000
2022-12-11T06:40:05.257Z,167.500000
2022-12-11T06:41:00.414Z,167.500000
2022-12-11T06:42:00.510Z,160.000000
2022-12-11T06:43:00.439Z,160.000000
2022-12-11T06:44:00.841Z,160.000000
2022-12-11T06:45:03.751Z,142.500000
2022-12-11T06:46:03.779Z,142.500000
2022-12-11T06:47:00.456Z,152.500000
2022-12-11T06:48:00.933Z,152.500000
2022-12-11T06:49:00.471Z,152.500000
2022-12-11T06:50:04.199Z,155.000000
2022-12-11T06:51:00.505Z,155.000000
2022-12-11T06:52:00.611Z,145.000000
2022-12-11T06:53:00.515Z,145.000000
2022-12-11T06:54:00.576Z,130.000000
2022-12-11T06:55:03.749Z,130.000000
2022-12-11T06:56:00.614Z,130.000000
2022-12-11T06:57:00.531Z,150.000000
2022-12-11T06:58:00.622Z,150.000000
2022-12-11T06:59:05.735Z,150.000000
2022-12-11T07:00:36.893Z,140.000000
2022-12-11T07:01:00.635Z,140.000000
2022-12-11T07:02:00.738Z,150.000000
2022-12-11T07:03:00.599Z,150.000000
2022-12-11T07:04:00.951Z,130.000000
2022-12-11T07:05:09.572Z,130.000000
2022-12-11T07:06:00.681Z,130.000000
2022-12-11T07:07:00.601Z,127.500000
2022-12-11T07:08:00.768Z,127.500000
2022-12-11T07:09:00.625Z,127.500000
2022-12-11T07:10:08.292Z,132.500000
2022-12-11T07:11:00.641Z,132.500000
2022-12-11T07:12:00.704Z,140.000000
2022-12-11T07:13:00.660Z,140.000000
2022-12-11T07:14:00.715Z,140.000000
2022-12-11T07:15:05.966Z,172.500000
2022-12-11T07:16:00.859Z,172.500000
2022-12-11T07:17:00.658Z,197.500000
2022-12-11T07:18:00.964Z,197.500000
2022-12-11T07:19:00.682Z,150.000000
2022-12-11T07:20:04.329Z,150.000000
2022-12-11T07:21:00.735Z,150.000000
2022-12-11T07:22:00.892Z,150.000000
2022-12-11T07:23:00.701Z,150.000000
2022-12-11T07:24:00.799Z,162.500000
2022-12-11T07:25:05.389Z,162.500000
2022-12-11T07:26:00.777Z,172.500000
2022-12-11T07:27:00.769Z,172.500000
2022-12-11T07:28:00.794Z,172.500000
2022-12-11T07:29:00.740Z,170.000000
2022-12-11T07:30:05.902Z,170.000000
2022-12-11T07:31:00.758Z,170.000000
2022-12-11T07:32:00.971Z,150.000000
2022-12-11T07:33:00.838Z,150.000000
2022-12-11T07:34:00.848Z,150.000000
2022-12-11T07:35:04.219Z,175.000000
2022-12-11T07:36:00.883Z,175.000000
2022-12-11T07:37:00.818Z,202.500000
2022-12-11T07:38:00.890Z,202.500000
2022-12-11T07:39:00.857Z,202.500000
2022-12-11T07:40:04.579Z,152.500000
2022-12-11T07:41:00.821Z,152.500000
2022-12-11T07:42:00.917Z,152.500000
2022-12-11T07:43:00.851Z,155.000000
2022-12-11T07:44:00.926Z,155.000000
2022-12-11T07:45:04.260Z,192.500000
2022-12-11T07:46:01.147Z,192.500000
2022-12-11T07:47:00.909Z,192.500000
2022-12-11T07:48:00.953Z,195.000000
2022-12-11T07:49:00.903Z,195.000000
2022-12-11T07:50:04.748Z,160.000000
2022-12-11T07:51:00.952Z,160.000000
2022-12-11T07:52:00.992Z,180.000000
2022-12-11T07:53:00.930Z,180.000000
2022-12-11T07:54:00.998Z,180.000000
2022-12-11T07:55:04.333Z,192.500000
2022-12-11T07:56:01.007Z,192.500000
2022-12-11T07:57:00.996Z,192.500000
2022-12-11T07:58:01.034Z,170.000000
2022-12-11T07:59:00.940Z,170.000000
2022-12-11T08:00:05.089Z,130.000000
2022-12-11T08:01:01.052Z,130.000000
2022-12-11T08:02:01.116Z,130.000000
2022-12-11T08:03:01.029Z,157.500000
2022-12-11T08:04:01.083Z,157.500000
2022-12-11T08:05:05.597Z,157.500000
2022-12-11T08:06:01.104Z,157.500000
2022-12-11T08:07:01.012Z,157.500000
2022-12-11T08:08:01.173Z,195.000000
2022-12-11T08:09:01.081Z,195.000000
2022-12-11T08:10:06.480Z,195.000000
2022-12-11T08:11:01.063Z,195.000000
2022-12-11T08:12:01.150Z,180.000000
2022-12-11T08:13:01.086Z,180.000000
2022-12-11T08:14:01.207Z,180.000000
2022-12-11T08:15:04.799Z,152.500000
2022-12-11T08:16:01.188Z,152.500000
2022-12-11T08:17:01.120Z,152.500000
2022-12-11T08:18:01.188Z,147.500000
2022-12-11T08:19:01.130Z,147.500000
2022-12-11T08:20:06.196Z,165.000000
2022-12-11T08:21:01.158Z,165.000000
2022-12-11T08:22:01.200Z,155.000000
2022-12-11T08:23:01.140Z,155.000000
2022-12-11T08:24:01.267Z,155.000000
2022-12-11T08:25:04.789Z,160.000000
2022-12-11T08:26:01.293Z,160.000000
2022-12-11T08:27:01.191Z,160.000000
2022-12-11T08:28:00.248Z,180.000000
2022-12-11T08:29:00.197Z,180.000000
2022-12-11T08:30:05.138Z,155.000000
2022-12-11T08:31:00.261Z,155.000000
2022-12-11T08:32:00.307Z,155.000000
2022-12-11T08:33:00.211Z,145.000000
2022-12-11T08:34:00.901Z,145.000000
2022-12-11T08:35:03.745Z,145.000000
2022-12-11T08:36:00.323Z,147.500000
2022-12-11T08:37:00.237Z,147.500000
2022-12-11T08:38:00.926Z,147.500000
2022-12-11T08:39:00.267Z,122.500000
2022-12-11T08:40:04.232Z,122.500000
2022-12-11T08:41:00.276Z,132.500000
2022-12-11T08:42:00.363Z,132.500000
2022-12-11T08:43:00.264Z,135.000000
2022-12-11T08:44:00.425Z,135.000000
2022-12-11T08:45:04.026Z,135.000000
2022-12-11T08:46:00.589Z,135.000000
2022-12-11T08:47:00.309Z,135.000000
2022-12-11T08:48:00.394Z,145.000000
2022-12-11T08:49:00.354Z,145.000000
2022-12-11T08:50:05.356Z,145.000000
2022-12-11T08:51:00.360Z,150.000000
2022-12-11T08:52:00.906Z,150.000000
2022-12-11T08:53:00.362Z,132.500000
2022-12-11T08:54:00.447Z,132.500000
2022-12-11T08:55:03.757Z,132.500000
2022-12-11T08:56:00.529Z,130.000000
2022-12-11T08:57:00.380Z,130.000000
2022-12-11T08:58:00.442Z,130.000000
2022-12-11T08:59:00.398Z,127.500000
2022-12-11T09:00:04.395Z,127.500000
2022-12-11T09:01:00.423Z,135.000000
2022-12-11T09:02:00.490Z,135.000000
2022-12-11T09:03:00.430Z,132.500000
2022-12-11T09:04:00.482Z,132.500000
2022-12-11T09:05:05.497Z,122.500000
2022-12-11T09:06:00.909Z,122.500000
2022-12-11T09:07:00.454Z,122.500000
2022-12-11T09:08:00.626Z,130.000000
2022-12-11T09:09:00.453Z,130.000000
2022-12-11T09:10:04.050Z,130.000000
2022-12-11T09:11:00.478Z,130.000000
2022-12-11T09:12:00.598Z,130.000000
2022-12-11T09:13:00.461Z,155.000000
2022-12-11T09:14:06.760Z,155.000000
2022-12-11T09:15:03.827Z,160.000000
2022-12-11T09:16:00.703Z,160.000000
2022-12-11T09:17:00.502Z,160.000000
2022-12-11T09:18:00.625Z,135.000000
2022-12-11T09:19:00.504Z,135.000000
2022-12-11T09:20:05.367Z,135.000000
2022-12-11T09:21:00.541Z,152.500000
2022-12-11T09:22:00.595Z,152.500000
2022-12-11T09:23:00.582Z,145.000000
2022-12-11T09:24:00.647Z,145.000000
2022-12-11T09:25:03.998Z,145.000000
2022-12-11T09:26:00.660Z,140.000000
2022-12-11T09:27:00.593Z,140.000000
2022-12-11T09:28:00.686Z,140.000000
2022-12-11T09:29:00.597Z,127.500000
2022-12-11T09:30:04.508Z,127.500000
2022-12-11T09:31:00.740Z,125.000000
2022-12-11T09:32:00.710Z,125.000000
2022-12-11T09:33:00.637Z,125.000000
2022-12-11T09:34:00.911Z,130.000000
2022-12-11T09:35:04.301Z,130.000000
2022-12-11T09:36:00.727Z,147.500000
2022-12-11T09:37:00.653Z,147.500000
2022-12-11T09:38:00.937Z,130.000000
2022-12-11T09:39:00.670Z,130.000000
2022-12-11T09:40:07.728Z,130.000000
2022-12-11T09:41:00.686Z,125.000000
2022-12-11T09:42:00.810Z,125.000000
2022-12-11T09:43:00.689Z,125.000000
2022-12-11T09:44:00.828Z,122.500000
2022-12-11T09:45:04.312Z,122.500000
2022-12-11T09:46:00.798Z,140.000000
2022-12-11T09:47:00.695Z,140.000000
2022-12-11T09:48:00.782Z,140.000000
2022-12-11T09:49:00.730Z,137.500000
2022-12-11T09:50:04.711Z,137.500000
2022-12-11T09:51:00.740Z,137.500000
2022-12-11T09:52:00.814Z,135.000000
2022-12-11T09:53:00.742Z,135.000000
2022-12-11T09:54:00.850Z,145.000000
2022-12-11T09:55:04.139Z,145.000000
2022-12-11T09:56:00.963Z,145.000000
2022-12-11T09:57:00.778Z,120.000000
2022-12-11T09:58:00.846Z,120.000000
2022-12-11T09:59:00.792Z,145.000000
2022-12-11T10:00:06.306Z,145.000000
2022-12-11T10:01:00.827Z,175.000000
2022-12-11T10:02:00.939Z,175.000000
2022-12-11T10:03:00.923Z,175.000000
2022-12-11T10:04:00.921Z,172.500000
2022-12-11T10:05:04.152Z,172.500000
2022-12-11T10:06:04.538Z,172.500000
2022-12-11T10:07:00.870Z,145.000000
2022-12-11T10:08:01.009Z,145.000000
2022-12-11T10:09:00.883Z,187.500000
2022-12-11T10:10:04.699Z,187.500000
2022-12-11T10:11:00.897Z,180.000000
2022-12-11T10:12:00.972Z,180.000000
2022-12-11T10:13:01.027Z,180.000000
2022-12-11T10:14:01.003Z,192.500000
2022-12-11T10:15:04.316Z,192.500000
2022-12-11T10:16:01.012Z,192.500000
2022-12-11T10:17:00.912Z,180.000000
2022-12-11T10:18:04.905Z,180.000000
2022-12-11T10:19:00.923Z,125.000000
2022-12-11T10:20:04.847Z,125.000000
2022-12-11T10:21:00.976Z,125.000000
2022-12-11T10:22:01.027Z,130.000000
2022-12-11T10:23:00.966Z,130.000000
2022-12-11T10:24:01.073Z,142.500000
2022-12-11T10:25:11.132Z,142.500000
2022-12-11T10:26:01.095Z,142.500000
2022-12-11T10:27:00.999Z,137.500000
2022-12-11T10:28:01.060Z,137.500000
2022-12-11T10:29:01.002Z,127.500000
2022-12-11T10:30:37.180Z,127.500000
2022-12-11T10:31:01.048Z,127.500000
2022-12-11T10:32:01.140Z,127.500000
2022-12-11T10:33:01.049Z,127.500000
2022-12-11T10:34:01.121Z,125.000000
2022-12-11T10:35:04.354Z,125.000000
2022-12-11T10:36:01.130Z,125.000000
2022-12-11T10:37:01.056Z,132.500000
2022-12-11T10:38:01.169Z,132.500000
2022-12-11T10:39:01.078Z,117.500000
2022-12-11T10:40:06.218Z,117.500000
2022-12-11T10:41:01.080Z,117.500000
2022-12-11T10:42:01.167Z,120.000000
2022-12-11T10:43:01.102Z,120.000000
2022-12-11T10:44:01.201Z,142.500000
2022-12-11T10:45:05.040Z,142.500000
2022-12-11T10:46:01.304Z,142.500000
2022-12-11T10:47:01.113Z,165.000000
2022-12-11T10:48:01.210Z,165.000000
2022-12-11T10:49:01.136Z,165.000000
2022-12-11T10:50:06.492Z,127.500000
2022-12-11T10:51:01.163Z,127.500000
2022-12-11T10:52:01.232Z,127.500000
2022-12-11T10:53:01.169Z,155.000000
2022-12-11T10:54:06.884Z,155.000000
2022-12-11T10:55:06.120Z,175.000000
2022-12-11T10:56:00.909Z,175.000000
2022-12-11T10:57:00.213Z,127.500000
2022-12-11T10:58:00.272Z,127.500000
2022-12-11T10:59:00.230Z,127.500000
2022-12-11T11:00:36.364Z,117.500000
2022-12-11T11:01:00.238Z,117.500000
2022-12-11T11:02:00.410Z,117.500000
2022-12-11T11:03:00.331Z,142.500000
2022-12-11T11:04:00.950Z,142.500000
2022-12-11T11:05:04.836Z,135.000000